createdAt,value
2022-10-20T00:01:51.958Z,102331.94
2022-10-20T00:04:18.618Z,102327.38
2022-10-20T00:06:45.201Z,102322.84
2022-10-20T00:09:11.820Z,102318.81
2022-10-20T00:11:38.595Z,102318.28
2022-10-20T00:14:05.761Z,102319.97
2022-10-20T00:16:36.157Z,102322.47
2022-10-20T00:19:02.972Z,102318.56
2022-10-20T00:21:29.723Z,102327.25
2022-10-20T00:24:00.137Z,102330.56
2022-10-20T00:26:27.884Z,102328.88
2022-10-20T00:28:55.481Z,102326.69
2022-10-20T00:31:23.727Z,102326.53
2022-10-20T00:33:50.469Z,102328.09
2022-10-20T00:36:18.705Z,102322.78
2022-10-20T00:38:45.742Z,102323.22
2022-10-20T00:41:20.538Z,102321.78
2022-10-20T00:43:51.646Z,102315.34
2022-10-20T00:46:24.674Z,102316.50
2022-10-20T00:48:55.100Z,102320.06
2022-10-20T00:51:24.784Z,102306.13
2022-10-20T00:53:53.854Z,102300.13
2022-10-20T00:56:22.508Z,102299.44
2022-10-20T00:58:50.241Z,102290.81
2022-10-20T01:01:17.286Z,102294.69
2022-10-20T01:03:49.518Z,102294.53
2022-10-20T01:06:18.817Z,102295.88
2022-10-20T01:08:45.720Z,102286.41
2022-10-20T01:11:39.775Z,102289.59
2022-10-20T01:14:15.699Z,102285.22
2022-10-20T01:16:47.960Z,102284.34
2022-10-20T01:19:33.856Z,102290.38
2022-10-20T01:22:09.871Z,102290.63
2022-10-20T01:24:53.505Z,102293.31
2022-10-20T01:27:25.426Z,102284.66
2022-10-20T01:30:03.262Z,102280.25
2022-10-20T01:33:07.158Z,102275.84
2022-10-20T01:36:01.913Z,102269.41
2022-10-20T01:38:42.031Z,102273.31
2022-10-20T01:41:40.841Z,102265.19
2022-10-20T01:44:11.991Z,102259.09
2022-10-20T01:46:42.507Z,102249.25
2022-10-20T01:49:10.377Z,102247.56
2022-10-20T01:51:37.225Z,102235.56
2022-10-20T01:54:03.865Z,102229.63
2022-10-20T01:56:56.079Z,102239.28
2022-10-20T01:59:57.465Z,102229.63
2022-10-20T02:02:42.554Z,102228.22
2022-10-20T02:05:38.548Z,102226.22
2022-10-20T02:08:16.602Z,102225.53
2022-10-20T02:10:57.591Z,102214.53
2022-10-20T02:13:25.546Z,102219.09
2022-10-20T02:15:56.089Z,102217.94
2022-10-20T02:18:28.262Z,102214.38
2022-10-20T02:20:58.424Z,102208.00
2022-10-20T02:23:25.196Z,102201.00
2022-10-20T02:25:54.263Z,102199.00
2022-10-20T02:28:22.299Z,102196.44
2022-10-20T02:30:48.982Z,102191.75
2022-10-20T02:33:17.500Z,102180.94
2022-10-20T02:35:51.557Z,102189.72
2022-10-20T02:38:18.136Z,102181.38
2022-10-20T02:40:44.941Z,102186.63
2022-10-20T02:43:11.509Z,102182.91
2022-10-20T02:45:38.173Z,102185.78
2022-10-20T02:48:07.598Z,102178.69
2022-10-20T02:50:35.237Z,102181.38
2022-10-20T02:53:02.023Z,102181.56
2022-10-20T02:55:28.627Z,102183.25
2022-10-20T02:57:55.216Z,102184.41
2022-10-20T03:00:21.854Z,102179.53
2022-10-20T03:02:48.424Z,102178.69
2022-10-20T03:05:15.151Z,102175.13
2022-10-20T03:07:41.814Z,102173.28
2022-10-20T03:10:09.068Z,102167.84
2022-10-20T03:12:35.619Z,102170.72
2022-10-20T03:15:02.192Z,102178.69
2022-10-20T03:17:28.848Z,102176.13
2022-10-20T03:19:55.447Z,102166.50
2022-10-20T03:22:22.078Z,102168.19
2022-10-20T03:24:48.670Z,102167.19
2022-10-20T03:27:15.380Z,102160.22
2022-10-20T03:29:41.931Z,102155.81
2022-10-20T03:32:08.512Z,102158.53
2022-10-20T03:34:35.095Z,102153.28
2022-10-20T03:37:01.847Z,102153.13
2022-10-20T03:39:28.413Z,102148.84
2022-10-20T03:41:57.458Z,102145.31
2022-10-20T03:44:24.653Z,102145.31
2022-10-20T03:46:51.339Z,102148.84
2022-10-20T03:49:17.907Z,102148.00
2022-10-20T03:51:44.544Z,102142.47
2022-10-20T03:54:11.105Z,102149.69
2022-10-20T03:56:37.677Z,102144.28
2022-10-20T04:01:35.769Z,102139.22
2022-10-20T04:04:02.398Z,102141.91
2022-10-20T04:06:29.106Z,102141.22
2022-10-20T04:08:55.767Z,102144.94
2022-10-20T04:11:22.395Z,102141.22
2022-10-20T04:13:48.994Z,102138.53
2022-10-20T04:16:15.641Z,102135.81
2022-10-20T04:18:42.288Z,102137.84
2022-10-20T04:21:08.931Z,102141.56
2022-10-20T04:23:35.612Z,102134.44
2022-10-20T04:26:09.660Z,102128.03
2022-10-20T04:28:36.269Z,102132.75
2022-10-20T04:31:02.827Z,102130.72
2022-10-20T04:33:29.520Z,102127.34
2022-10-20T04:36:03.886Z,102130.03
2022-10-20T04:38:31.568Z,102123.91
2022-10-20T04:41:03.313Z,102117.50
2022-10-20T04:43:32.163Z,102119.53
2022-10-20T04:46:06.920Z,102119.34
2022-10-20T04:48:35.451Z,102124.78
2022-10-20T04:51:08.371Z,102113.09
2022-10-20T04:53:35.117Z,102119.53
2022-10-20T04:56:02.431Z,102115.13
2022-10-20T04:58:29.022Z,102114.28
2022-10-20T05:01:04.697Z,102106.84
2022-10-20T05:03:31.321Z,102098.91
2022-10-20T05:06:15.254Z,102100.59
2022-10-20T05:08:44.155Z,102089.22
2022-10-20T05:11:11.473Z,102084.81
2022-10-20T05:13:38.125Z,102091.41
2022-10-20T05:16:05.444Z,102088.38
2022-10-20T05:18:32.768Z,102089.09
2022-10-20T05:21:14.530Z,102085.66
2022-10-20T05:23:42.364Z,102078.56
2022-10-20T05:26:15.566Z,102076.88
2022-10-20T05:28:50.204Z,102070.44
2022-10-20T05:31:18.090Z,102077.88
2022-10-20T05:33:47.181Z,102075.84
2022-10-20T05:36:19.376Z,102073.16
2022-10-20T05:38:49.158Z,102080.03
2022-10-20T05:41:17.813Z,102073.16
2022-10-20T05:43:52.949Z,102086.91
2022-10-20T05:46:20.614Z,102087.44
2022-10-20T05:48:47.709Z,102084.78
2022-10-20T05:51:16.774Z,102078.72
2022-10-20T05:53:44.577Z,102080.50
2022-10-20T05:56:14.018Z,102089.28
2022-10-20T05:58:42.330Z,102086.25
2022-10-20T06:01:13.895Z,102082.06
2022-10-20T06:03:40.492Z,102086.25
2022-10-20T06:06:07.069Z,102095.53
2022-10-20T06:08:34.628Z,102095.88
2022-10-20T06:11:06.713Z,102103.97
2022-10-20T06:13:34.117Z,102101.44
2022-10-20T06:16:03.354Z,102104.84
2022-10-20T06:18:30.956Z,102100.44
2022-10-20T06:21:02.055Z,102101.13
2022-10-20T06:23:28.779Z,102103.81
2022-10-20T06:25:55.962Z,102108.38
2022-10-20T06:28:22.565Z,102110.41
2022-10-20T06:30:49.147Z,102113.78
2022-10-20T06:33:16.942Z,102111.09
2022-10-20T06:35:43.536Z,102105.69
2022-10-20T06:38:10.178Z,102103.50
2022-10-20T06:40:36.819Z,102105.69
2022-10-20T06:43:03.440Z,102104.84
2022-10-20T06:45:30.011Z,102104.16
2022-10-20T06:47:56.712Z,102104.16
2022-10-20T06:50:23.289Z,102104.16
2022-10-20T06:52:49.936Z,102090.75
2022-10-20T06:55:16.587Z,102095.47
2022-10-20T06:57:43.140Z,102090.91
2022-10-20T07:00:10.065Z,102093.94
2022-10-20T07:02:39.377Z,102091.09
2022-10-20T07:05:06.520Z,102092.94
2022-10-20T07:07:33.179Z,102091.25
2022-10-20T07:09:59.766Z,102092.09
2022-10-20T07:12:26.334Z,102093.63
2022-10-20T07:14:52.877Z,102090.91
2022-10-20T07:17:19.444Z,102089.06
2022-10-20T07:19:45.988Z,102086.34
2022-10-20T07:22:12.557Z,102090.91
2022-10-20T07:24:39.123Z,102091.09
2022-10-20T07:27:05.688Z,102092.63
2022-10-20T07:32:05.442Z,102098.88
2022-10-20T07:34:32.006Z,102087.75
2022-10-20T07:36:58.718Z,102092.31
2022-10-20T07:39:26.140Z,102090.69
2022-10-20T07:41:52.963Z,102079.78
2022-10-20T07:44:19.690Z,102077.94
2022-10-20T07:46:46.314Z,102074.47
2022-10-20T07:51:59.854Z,102079.22
2022-10-20T07:54:26.416Z,102082.16
2022-10-20T07:56:53.165Z,102077.56
2022-10-20T07:59:19.976Z,102073.84
2022-10-20T08:01:46.801Z,102081.50
2022-10-20T08:04:13.429Z,102082.47
2022-10-20T08:06:39.988Z,102070.59
2022-10-20T08:09:07.455Z,102069.66
2022-10-20T08:11:34.574Z,102060.59
2022-10-20T08:14:01.366Z,102053.09
2022-10-20T08:16:30.808Z,102048.03
2022-10-20T08:18:59.211Z,102044.44
2022-10-20T08:21:25.859Z,102048.09
2022-10-20T08:23:52.588Z,102039.03
2022-10-20T08:26:25.340Z,102043.00
2022-10-20T08:28:54.096Z,102031.09
2022-10-20T08:31:21.555Z,102033.03
2022-10-20T08:33:52.307Z,102037.41
2022-10-20T08:36:19.915Z,102034.28
2022-10-20T08:38:46.478Z,102039.53
2022-10-20T08:41:22.884Z,102036.44
2022-10-20T08:43:51.900Z,102037.81
2022-10-20T08:46:20.752Z,102028.34
2022-10-20T08:48:48.221Z,102039.19
2022-10-20T08:51:21.207Z,102035.56
2022-10-20T08:53:51.727Z,102033.03
2022-10-20T08:56:22.882Z,102036.06
2022-10-20T08:58:49.809Z,102033.69
2022-10-20T09:01:33.052Z,102032.31
2022-10-20T09:04:22.012Z,102033.00
2022-10-20T09:06:53.944Z,102030.63
2022-10-20T09:09:22.920Z,102027.91
2022-10-20T09:11:50.092Z,102023.84
2022-10-20T09:14:16.806Z,102023.50
2022-10-20T09:16:59.375Z,102016.06
2022-10-20T09:19:28.255Z,102017.09
2022-10-20T09:22:05.484Z,102002.88
2022-10-20T09:24:34.817Z,102004.19
2022-10-20T09:27:39.984Z,101999.28
2022-10-20T09:30:21.641Z,102003.19
2022-10-20T09:32:48.776Z,101995.66
2022-10-20T09:35:15.409Z,101996.84
2022-10-20T09:37:43.653Z,101989.28
2022-10-20T09:40:18.216Z,101987.69
2022-10-20T09:42:55.256Z,101985.47
2022-10-20T09:45:33.059Z,101974.56
2022-10-20T09:48:15.238Z,101974.53
2022-10-20T09:50:49.066Z,101961.31
2022-10-20T09:53:20.999Z,101964.94
2022-10-20T09:55:50.496Z,101966.38
2022-10-20T09:58:24.373Z,101967.03
2022-10-20T10:01:04.278Z,101956.88
2022-10-20T10:03:39.675Z,101949.53
2022-10-20T10:06:30.822Z,101940.13
2022-10-20T10:09:00.474Z,101942.56
2022-10-20T10:11:34.277Z,101935.09
2022-10-20T10:14:01.756Z,101934.59
2022-10-20T10:16:39.548Z,101936.66
2022-10-20T10:19:06.912Z,101928.69
2022-10-20T10:21:51.694Z,101925.13
2022-10-20T10:24:39.400Z,101924.97
2022-10-20T10:27:19.332Z,101904.56
2022-10-20T10:29:46.378Z,101915.22
2022-10-20T10:32:15.147Z,101903.91
2022-10-20T10:35:03.438Z,101905.69
2022-10-20T10:37:34.718Z,101896.59
2022-10-20T10:40:12.062Z,101888.19
2022-10-20T10:43:29.810Z,101887.94
2022-10-20T10:46:20.445Z,101877.84
2022-10-20T10:48:58.881Z,101884.63
2022-10-20T10:51:40.238Z,101870.22
2022-10-20T10:54:15.190Z,101880.94
2022-10-20T10:56:49.674Z,101867.56
2022-10-20T10:59:34.940Z,101869.78
2022-10-20T11:02:10.480Z,101864.97
2022-10-20T11:05:00.374Z,101865.06
2022-10-20T11:07:55.879Z,101840.25
2022-10-20T11:10:50.973Z,101837.19
2022-10-20T11:13:26.024Z,101834.69
2022-10-20T11:16:14.952Z,101819.47
2022-10-20T11:19:29.213Z,101815.25
2022-10-20T11:21:58.740Z,101804.09
2022-10-20T11:24:40.543Z,101807.97
2022-10-20T11:27:24.547Z,101802.78
2022-10-20T11:30:08.083Z,101801.94
2022-10-20T11:32:52.956Z,101792.78
2022-10-20T11:35:31.986Z,101789.38
2022-10-20T11:38:23.777Z,101780.59
2022-10-20T11:41:06.261Z,101769.44
2022-10-20T11:43:50.842Z,101767.41
2022-10-20T11:46:42.558Z,101756.03
2022-10-20T11:49:12.271Z,101759.38
2022-10-20T11:51:41.495Z,101752.06
2022-10-20T11:54:14.356Z,101750.72
2022-10-20T11:56:49.888Z,101751.28
2022-10-20T11:59:48.004Z,101756.34
2022-10-20T12:02:23.595Z,101760.22
2022-10-20T12:05:10.605Z,101765.19
2022-10-20T12:08:35.685Z,101759.03
2022-10-20T12:11:39.501Z,101761.63
2022-10-20T12:14:15.069Z,101757.19
2022-10-20T12:16:53.665Z,101766.78
2022-10-20T12:19:28.264Z,101753.72
2022-10-20T12:21:56.777Z,101754.81
2022-10-20T12:24:52.174Z,101752.31
2022-10-20T12:27:27.705Z,101745.94
2022-10-20T12:29:56.207Z,101744.50
2022-10-20T12:32:25.486Z,101747.41
2022-10-20T12:35:02.460Z,101741.31
2022-10-20T12:37:36.407Z,101734.53
2022-10-20T12:40:09.258Z,101733.69
2022-10-20T12:42:46.406Z,101726.91
2022-10-20T12:45:18.770Z,101721.63
2022-10-20T12:47:52.152Z,101713.06
2022-10-20T12:50:36.888Z,101709.09
2022-10-20T12:53:16.959Z,101711.06
2022-10-20T12:55:48.390Z,101702.16
2022-10-20T12:58:17.960Z,101699.69
2022-10-20T13:00:47.605Z,101690.38
2022-10-20T13:03:36.130Z,101693.09
2022-10-20T13:06:22.974Z,101686.97
2022-10-20T13:09:04.811Z,101681.53
2022-10-20T13:11:37.730Z,101682.41
2022-10-20T13:14:13.209Z,101683.31
2022-10-20T13:16:48.857Z,101680.84
2022-10-20T13:19:22.663Z,101682.50
2022-10-20T13:21:50.504Z,101678.38
2022-10-20T13:24:44.877Z,101673.72
2022-10-20T13:27:12.004Z,101664.69
2022-10-20T13:29:43.572Z,101667.13
2022-10-20T13:32:26.654Z,101667.88
2022-10-20T13:34:55.812Z,101663.09
2022-10-20T13:38:07.655Z,101652.19
2022-10-20T13:43:48.511Z,101645.44
2022-10-20T13:46:42.299Z,101639.66
2022-10-20T13:49:34.015Z,101635.50
2022-10-20T13:52:06.060Z,101622.88
2022-10-20T13:54:37.094Z,101635.97
2022-10-20T13:57:04.208Z,101636.47
2022-10-20T13:59:30.960Z,101634.97
2022-10-20T14:02:18.971Z,101635.91
2022-10-20T14:04:45.551Z,101630.66
2022-10-20T14:07:13.576Z,101629.91
2022-10-20T14:09:45.308Z,101632.34
2022-10-20T14:12:26.256Z,101627.50
2022-10-20T14:15:01.426Z,101616.16
2022-10-20T14:17:28.694Z,101629.00
2022-10-20T14:20:21.317Z,101626.91
2022-10-20T14:22:48.536Z,101628.16
2022-10-20T14:25:16.136Z,101626.16
2022-10-20T14:27:42.987Z,101617.88
2022-10-20T14:30:15.669Z,101612.03
2022-10-20T14:32:44.262Z,101616.34
2022-10-20T14:35:42.604Z,101618.75
2022-10-20T14:38:31.326Z,101620.03
2022-10-20T14:40:59.176Z,101630.50
2022-10-20T14:43:47.280Z,101629.34
2022-10-20T14:46:30.415Z,101628.25
2022-10-20T14:48:59.883Z,101620.38
2022-10-20T14:51:35.302Z,101624.03
2022-10-20T14:54:37.960Z,101626.31
2022-10-20T14:57:10.457Z,101634.66
2022-10-20T15:00:04.594Z,101633.25
2022-10-20T15:02:40.013Z,101629.06
2022-10-20T15:05:31.462Z,101607.50
2022-10-20T15:08:07.169Z,101604.25
2022-10-20T15:10:33.827Z,101600.28
2022-10-20T15:13:00.508Z,101590.53
2022-10-20T15:15:35.732Z,101584.31
2022-10-20T15:18:14.769Z,101585.06
2022-10-20T15:20:43.421Z,101577.47
2022-10-20T15:23:13.489Z,101578.63
2022-10-20T15:25:50.362Z,101575.66
2022-10-20T15:28:40.430Z,101576.28
2022-10-20T15:31:13.117Z,101567.78
2022-10-20T15:33:40.823Z,101568.19
2022-10-20T15:36:16.348Z,101568.47
2022-10-20T15:38:43.463Z,101563.75
2022-10-20T15:41:18.152Z,101561.41
2022-10-20T15:43:44.694Z,101557.91
2022-10-20T15:46:12.703Z,101555.56
2022-10-20T15:48:39.799Z,101550.50
2022-10-20T15:51:17.224Z,101544.47
2022-10-20T15:53:46.058Z,101533.66
2022-10-20T15:56:12.622Z,101525.91
2022-10-20T15:58:39.945Z,101531.63
2022-10-20T16:01:07.758Z,101524.22
2022-10-20T16:03:35.747Z,101517.25
2022-10-20T16:06:02.293Z,101518.41
2022-10-20T16:08:28.975Z,101523.31
2022-10-20T16:10:56.172Z,101525.34
2022-10-20T16:13:22.740Z,101527.19
2022-10-20T16:15:49.287Z,101525.16
2022-10-20T16:18:15.835Z,101513.59
2022-10-20T16:20:42.413Z,101518.13
2022-10-20T16:23:09.003Z,101517.94
2022-10-20T16:25:35.580Z,101504.56
2022-10-20T16:28:02.136Z,101498.13
2022-10-20T16:30:28.694Z,101506.44
2022-10-20T16:32:56.048Z,101502.59
2022-10-20T16:35:22.633Z,101510.16
2022-10-20T16:37:49.183Z,101496.50
2022-10-20T16:40:15.847Z,101487.19
2022-10-20T16:42:42.439Z,101493.53
2022-10-20T16:45:09.518Z,101493.88
2022-10-20T16:47:36.292Z,101502.19
2022-10-20T16:50:03.335Z,101506.91
2022-10-20T16:52:29.899Z,101518.78
2022-10-20T16:54:56.424Z,101519.31
2022-10-20T16:57:23.026Z,101516.81
2022-10-20T16:59:52.539Z,101519.38
2022-10-20T17:02:19.728Z,101521.59
2022-10-20T17:04:49.936Z,101516.56
2022-10-20T17:07:17.214Z,101515.72
2022-10-20T17:09:43.827Z,101510.44
2022-10-20T17:12:10.476Z,101508.94
2022-10-20T17:14:38.448Z,101506.91
2022-10-20T17:17:05.016Z,101494.75
2022-10-20T17:19:31.562Z,101484.06
2022-10-20T17:21:58.235Z,101479.50
2022-10-20T17:24:24.818Z,101476.78
2022-10-20T17:26:51.500Z,101486.63
2022-10-20T17:29:22.276Z,101486.97
2022-10-20T17:31:51.853Z,101499.31
2022-10-20T17:34:18.447Z,101474.25
2022-10-20T17:36:44.990Z,101471.22
2022-10-20T17:39:14.684Z,101468.88
2022-10-20T17:41:42.643Z,101467.88
2022-10-20T17:44:09.709Z,101469.53
2022-10-20T17:46:36.397Z,101467.88
2022-10-20T17:49:03.016Z,101466.38
2022-10-20T17:51:33.422Z,101463.84
2022-10-20T17:54:01.718Z,101455.91
2022-10-20T17:56:38.108Z,101443.72
2022-10-20T17:59:07.385Z,101452.34
2022-10-20T18:01:39.183Z,101455.91
2022-10-20T18:04:11.294Z,101449.47
2022-10-20T18:06:39.204Z,101444.88
2022-10-20T18:09:10.782Z,101457.03
2022-10-20T18:11:38.960Z,101459.56
2022-10-20T18:14:06.390Z,101443.81
2022-10-20T18:16:36.856Z,101444.66
2022-10-20T18:19:03.952Z,101439.44
2022-10-20T18:21:31.902Z,101427.06
2022-10-20T18:24:02.421Z,101443.31
2022-10-20T18:26:31.500Z,101441.44
2022-10-20T18:28:59.889Z,101440.59
2022-10-20T18:31:29.204Z,101437.06
2022-10-20T18:34:02.565Z,101427.75
2022-10-20T18:36:33.341Z,101417.81
2022-10-20T18:39:00.586Z,101416.78
2022-10-20T18:41:30.477Z,101418.94
2022-10-20T18:43:59.749Z,101425.75
2022-10-20T18:46:31.634Z,101413.53
2022-10-20T18:49:00.147Z,101410.34
2022-10-20T18:51:27.752Z,101412.88
2022-10-20T18:53:56.851Z,101392.91
2022-10-20T18:56:26.338Z,101388.31
2022-10-20T18:58:55.333Z,101379.19
2022-10-20T19:01:24.607Z,101367.69
2022-10-20T19:03:53.375Z,101360.31
2022-10-20T19:06:24.688Z,101361.34
2022-10-20T19:08:56.880Z,101354.06
2022-10-20T19:11:26.117Z,101340.88
2022-10-20T19:13:53.096Z,101339.38
2022-10-20T19:16:22.812Z,101338.06
2022-10-20T19:18:51.386Z,101343.56
2022-10-20T19:21:18.809Z,101350.19
2022-10-20T19:23:50.023Z,101359.06
2022-10-20T19:26:22.971Z,101358.69
2022-10-20T19:28:58.578Z,101366.63
2022-10-20T19:31:36.793Z,101365.97
2022-10-20T19:34:14.045Z,101375.09
2022-10-20T19:36:41.525Z,101368.03
2022-10-20T19:39:10.394Z,101348.03
2022-10-20T19:41:37.252Z,101351.97
2022-10-20T19:44:03.868Z,101343.84
2022-10-20T19:46:30.541Z,101351.78
2022-10-20T19:48:57.561Z,101348.56
2022-10-20T19:51:24.238Z,101340.28
2022-10-20T19:53:50.987Z,101332.19
2022-10-20T19:56:17.938Z,101331.50
2022-10-20T19:58:46.815Z,101340.28
2022-10-20T20:01:14.580Z,101330.19
2022-10-20T20:03:41.251Z,101334.56
2022-10-20T20:06:11.284Z,101331.03
2022-10-20T20:08:38.155Z,101318.31
2022-10-20T20:11:05.796Z,101314.22
2022-10-20T20:13:32.781Z,101320.00
2022-10-20T20:16:08.130Z,101312.06
2022-10-20T20:18:35.954Z,101311.72
2022-10-20T20:21:05.063Z,101313.22
2022-10-20T20:23:54.469Z,101314.59
2022-10-20T20:26:20.963Z,101316.28
2022-10-20T20:28:47.551Z,101317.13
2022-10-20T20:31:14.334Z,101306.94
2022-10-20T20:33:40.908Z,101314.22
2022-10-20T20:36:08.665Z,101309.84
2022-10-20T20:38:37.248Z,101301.06
2022-10-20T20:41:06.928Z,101307.31
2022-10-20T20:43:35.226Z,101316.47
2022-10-20T20:46:06.771Z,101311.22
2022-10-20T20:48:35.323Z,101308.72
2022-10-20T20:51:02.186Z,101306.66
2022-10-20T20:53:28.796Z,101306.66
2022-10-20T20:56:00.153Z,101306.00
2022-10-20T20:58:28.420Z,101299.94
2022-10-20T21:01:05.843Z,101298.72
2022-10-20T21:03:33.491Z,101300.41
2022-10-20T21:06:08.209Z,101298.34
2022-10-20T21:08:35.841Z,101302.47
2022-10-20T21:11:16.855Z,101301.91
2022-10-20T21:13:44.494Z,101303.13
2022-10-20T21:16:19.598Z,101298.34
2022-10-20T21:18:48.608Z,101301.06
2022-10-20T21:21:17.788Z,101289.59
2022-10-20T21:23:44.573Z,101288.38
2022-10-20T21:26:12.863Z,101285.84
2022-10-20T21:28:40.443Z,101283.16
2022-10-20T21:31:09.146Z,101278.38
2022-10-20T21:33:37.448Z,101276.72
2022-10-20T21:36:10.514Z,101276.72
2022-10-20T21:38:38.913Z,101269.63
2022-10-20T21:41:06.387Z,101292.28
2022-10-20T21:43:35.035Z,101289.59
2022-10-20T21:46:15.391Z,101281.28
2022-10-20T21:48:43.132Z,101278.09
2022-10-20T21:51:18.993Z,101275.88
2022-10-20T21:53:46.063Z,101276.25
2022-10-20T21:56:13.602Z,101284.34
2022-10-20T21:58:40.941Z,101288.75
2022-10-20T22:01:13.177Z,101285.00
2022-10-20T22:03:40.413Z,101283.53
2022-10-20T22:06:09.286Z,101280.81
2022-10-20T22:08:37.653Z,101290.63
2022-10-20T22:11:10.662Z,101292.66
2022-10-20T22:13:37.779Z,101298.06
2022-10-20T22:16:11.450Z,101308.91
2022-10-20T22:18:38.086Z,101301.81
2022-10-20T22:21:12.535Z,101303.81
2022-10-20T22:23:40.266Z,101298.41
2022-10-20T22:26:06.966Z,101298.59
2022-10-20T22:28:33.608Z,101295.25
2022-10-20T22:33:27.767Z,101298.13
2022-10-20T22:35:54.390Z,101294.41
2022-10-20T22:38:21.101Z,101292.53
2022-10-20T22:40:47.944Z,101297.28
2022-10-20T22:43:14.589Z,101294.75
2022-10-20T22:45:41.251Z,101293.56
2022-10-20T22:48:07.940Z,101292.72
2022-10-20T22:50:34.566Z,101291.88
2022-10-20T22:53:01.126Z,101287.97
2022-10-20T22:55:27.716Z,101288.34
2022-10-20T22:57:54.373Z,101280.03
2022-10-20T23:00:21.019Z,101270.41
2022-10-20T23:02:47.582Z,101263.31
2022-10-20T23:05:14.224Z,101262.47
2022-10-20T23:07:41.116Z,101268.75
2022-10-20T23:10:08.261Z,101260.81
2022-10-20T23:12:35.239Z,101248.13
2022-10-20T23:15:01.999Z,101232.22
2022-10-20T23:17:28.586Z,101234.94
2022-10-20T23:19:55.149Z,101233.94
2022-10-20T23:22:21.728Z,101216.00
2022-10-20T23:24:48.312Z,101210.78
2022-10-20T23:27:14.957Z,101212.44
2022-10-20T23:29:41.534Z,101207.22
2022-10-20T23:32:08.186Z,101205.53
2022-10-20T23:37:06.214Z,101202.47
2022-10-20T23:39:32.769Z,101204.72
2022-10-20T23:42:02.335Z,101217.41
2022-10-20T23:44:32.882Z,101221.78
2022-10-20T23:46:59.484Z,101219.06
2022-10-20T23:49:26.045Z,101213.84
2022-10-20T23:51:52.588Z,101203.03
2022-10-20T23:54:19.275Z,101204.25
2022-10-20T23:56:45.847Z,101196.78
2022-10-20T23:59:12.517Z,101200.13
